FIN7FG LPPT-EFHK
Flight info
| Callsign | FIN7FG |
|---|---|
| Flight time | 4h 23m |
| Altitude | 36000 |
| Route | IXIDA DCT TOSDI DCT ZMR DCT NUBLO DCT RONSI DCT DELOG DCT DIDIG/N0446F380 DCT USODA DCT ERCUT DCT DITAL DCT ELCOB DCT PODEM DCT BAZOS DCT BELDI DCT VEKIN DCT ADUTO/N0442F370 DCT VICOT DCT ABFAD DCT ALASA DCT VIBAR DCT ALAMI DCT OKEVU DCT EVADI Y370 DIVAM |
| Aircraft | A319/M-SDE3FGHIRWY/LB1 |
Departure
| Time | 2026-05-07 12:37 |
|---|---|
| Airport | Lisbon Humberto Delgado Airport (LPPT) |
Arrival
| Time | 2026-05-07 17:01 |
|---|---|
| Airport | Helsinki Vantaa Airport (EFHK) |
| Time | Latitude | Longitude | Altitude | Speed | Heading |
|---|---|---|---|---|---|
| 2026-05-07 12:16 | 38.76938 | -9.13063 | 337 ft | 0 kts | 78° |
| 2026-05-07 12:25 | 38.76933 | -9.13090 | 333 ft | 4 kts | 78° |
| 2026-05-07 12:26 | 38.76929 | -9.13123 | 333 ft | 4 kts | 96° |
| 2026-05-07 12:26 | 38.76938 | -9.13151 | 333 ft | 4 kts | 148° |
| 2026-05-07 12:26 | 38.76952 | -9.13158 | 335 ft | 1 kts | 168° |
| 2026-05-07 12:26 | 38.76954 | -9.13159 | 335 ft | 1 kts | 168° |
| 2026-05-07 12:30 | 38.76924 | -9.13151 | 336 ft | 15 kts | 168° |
| 2026-05-07 12:30 | 38.76824 | -9.13126 | 339 ft | 14 kts | 178° |
| 2026-05-07 12:31 | 38.76773 | -9.13218 | 335 ft | 20 kts | 260° |
| 2026-05-07 12:31 | 38.76742 | -9.13378 | 347 ft | 15 kts | 237° |
| 2026-05-07 12:31 | 38.76660 | -9.13472 | 347 ft | 15 kts | 236° |
| 2026-05-07 12:31 | 38.76626 | -9.13645 | 350 ft | 19 kts | 259° |
| 2026-05-07 12:32 | 38.76597 | -9.13834 | 350 ft | 26 kts | 257° |
| 2026-05-07 12:32 | 38.76570 | -9.13987 | 349 ft | 13 kts | 247° |
| 2026-05-07 12:32 | 38.76506 | -9.14093 | 350 ft | 14 kts | 232° |
| 2026-05-07 12:32 | 38.76508 | -9.14216 | 344 ft | 7 kts | 292° |
| 2026-05-07 12:33 | 38.76509 | -9.14221 | 339 ft | 0 kts | 292° |
| 2026-05-07 12:33 | 38.76515 | -9.14240 | 336 ft | 0 kts | 292° |
| 2026-05-07 12:33 | 38.76522 | -9.14261 | 338 ft | 9 kts | 292° |
| 2026-05-07 12:34 | 38.76526 | -9.14275 | 338 ft | 0 kts | 292° |
| 2026-05-07 12:35 | 38.76550 | -9.14350 | 334 ft | 17 kts | 292° |
| 2026-05-07 12:35 | 38.76614 | -9.14407 | 336 ft | 11 kts | 20° |
| 2026-05-07 12:35 | 38.76628 | -9.14398 | 334 ft | 0 kts | 26° |
| 2026-05-07 12:36 | 38.76677 | -9.14368 | 334 ft | 17 kts | 24° |
| 2026-05-07 12:36 | 38.77042 | -9.14173 | 355 ft | 98 kts | 22° |
| 2026-05-07 12:37 | 38.77900 | -9.13723 | 367 ft | 169 kts | 22° |
| 2026-05-07 12:37 | 38.79061 | -9.13060 | 805 ft | 189 kts | 22° |
| 2026-05-07 12:37 | 38.80278 | -9.12353 | 1629 ft | 192 kts | 20° |
| 2026-05-07 12:37 | 38.81510 | -9.11668 | 2459 ft | 197 kts | 23° |
| 2026-05-07 12:38 | 38.82770 | -9.10766 | 2842 ft | 220 kts | 26° |
| 2026-05-07 12:38 | 38.84164 | -9.09716 | 3290 ft | 245 kts | 28° |
| 2026-05-07 12:38 | 38.85687 | -9.08550 | 3873 ft | 263 kts | 31° |
| 2026-05-07 12:38 | 38.87285 | -9.07311 | 4666 ft | 272 kts | 31° |
| 2026-05-07 12:39 | 38.88920 | -9.06038 | 5542 ft | 278 kts | 32° |
| 2026-05-07 12:39 | 38.90456 | -9.04519 | 6438 ft | 281 kts | 44° |
| 2026-05-07 12:39 | 38.91913 | -9.02820 | 7317 ft | 285 kts | 44° |
| 2026-05-07 12:39 | 38.93388 | -9.01095 | 8189 ft | 288 kts | 44° |
| 2026-05-07 12:40 | 38.94377 | -8.99939 | 8776 ft | 291 kts | 43° |
| 2026-05-07 12:40 | 38.95884 | -8.98176 | 9664 ft | 295 kts | 43° |
| 2026-05-07 12:40 | 38.97424 | -8.96377 | 10294 ft | 308 kts | 43° |
| 2026-05-07 12:40 | 38.99066 | -8.94458 | 10568 ft | 331 kts | 43° |
| 2026-05-07 12:41 | 39.00825 | -8.92400 | 11101 ft | 342 kts | 43° |
| 2026-05-07 12:41 | 39.02594 | -8.90329 | 11809 ft | 347 kts | 42° |
| 2026-05-07 12:41 | 39.04372 | -8.88249 | 12527 ft | 352 kts | 42° |
| 2026-05-07 12:41 | 39.06213 | -8.86094 | 13309 ft | 355 kts | 42° |
| 2026-05-07 12:42 | 39.08026 | -8.83973 | 13990 ft | 359 kts | 41° |
| 2026-05-07 12:42 | 39.09878 | -8.81804 | 14693 ft | 361 kts | 41° |
| 2026-05-07 12:42 | 39.11763 | -8.79591 | 15349 ft | 364 kts | 41° |
| 2026-05-07 12:42 | 39.13616 | -8.77414 | 15992 ft | 367 kts | 41° |
| 2026-05-07 12:43 | 39.15508 | -8.75192 | 16642 ft | 370 kts | 40° |
| 2026-05-07 12:43 | 39.17361 | -8.72859 | 17269 ft | 375 kts | 46° |
| 2026-05-07 12:43 | 39.19095 | -8.70326 | 17932 ft | 378 kts | 46° |
| 2026-05-07 12:43 | 39.20835 | -8.67778 | 18539 ft | 381 kts | 46° |
| 2026-05-07 12:44 | 39.22594 | -8.65204 | 19079 ft | 384 kts | 46° |
| 2026-05-07 12:44 | 39.24367 | -8.62607 | 19598 ft | 388 kts | 46° |
| 2026-05-07 12:44 | 39.26180 | -8.59947 | 20136 ft | 392 kts | 45° |
| 2026-05-07 12:44 | 39.27966 | -8.57324 | 20688 ft | 395 kts | 45° |
| 2026-05-07 12:45 | 39.29788 | -8.54647 | 21224 ft | 398 kts | 45° |
| 2026-05-07 12:45 | 39.31623 | -8.51950 | 21746 ft | 402 kts | 45° |
| 2026-05-07 12:45 | 39.33503 | -8.49186 | 22264 ft | 406 kts | 44° |
| 2026-05-07 12:45 | 39.35372 | -8.46436 | 22781 ft | 409 kts | 44° |
| 2026-05-07 12:46 | 39.37235 | -8.43695 | 23275 ft | 413 kts | 44° |
| 2026-05-07 12:46 | 39.39160 | -8.40858 | 23716 ft | 417 kts | 44° |
| 2026-05-07 12:46 | 39.41054 | -8.38061 | 24112 ft | 420 kts | 44° |
| 2026-05-07 12:46 | 39.42981 | -8.35207 | 24508 ft | 423 kts | 44° |
| 2026-05-07 12:47 | 39.44920 | -8.32328 | 24937 ft | 425 kts | 43° |
| 2026-05-07 12:47 | 39.46869 | -8.29432 | 25325 ft | 428 kts | 43° |
| 2026-05-07 12:47 | 39.48834 | -8.26519 | 25702 ft | 431 kts | 43° |
| 2026-05-07 12:47 | 39.50814 | -8.23588 | 26078 ft | 434 kts | 43° |
| 2026-05-07 12:48 | 39.52808 | -8.20632 | 26498 ft | 436 kts | 43° |
| 2026-05-07 12:48 | 39.54801 | -8.17666 | 26902 ft | 438 kts | 43° |
| 2026-05-07 12:48 | 39.56808 | -8.14676 | 27275 ft | 441 kts | 43° |
| 2026-05-07 12:48 | 39.58827 | -8.11665 | 27642 ft | 444 kts | 43° |
| 2026-05-07 12:49 | 39.60857 | -8.08635 | 28005 ft | 447 kts | 43° |
| 2026-05-07 12:49 | 39.62900 | -8.05588 | 28367 ft | 450 kts | 43° |
| 2026-05-07 12:49 | 39.64963 | -8.02512 | 28713 ft | 453 kts | 43° |
| 2026-05-07 12:49 | 39.67077 | -7.99487 | 29054 ft | 453 kts | 40° |
| 2026-05-07 12:50 | 39.69296 | -7.96571 | 29380 ft | 454 kts | 38° |
| 2026-05-07 12:50 | 39.71583 | -7.93737 | 29712 ft | 456 kts | 36° |
| 2026-05-07 12:50 | 39.73908 | -7.90929 | 30019 ft | 458 kts | 36° |
| 2026-05-07 12:50 | 39.76250 | -7.88103 | 30287 ft | 461 kts | 36° |
| 2026-05-07 12:51 | 39.78588 | -7.85240 | 30593 ft | 463 kts | 37° |
| 2026-05-07 12:51 | 39.80917 | -7.82335 | 30863 ft | 465 kts | 37° |
| 2026-05-07 12:51 | 39.83242 | -7.79397 | 31101 ft | 467 kts | 37° |
| 2026-05-07 12:51 | 39.85573 | -7.76422 | 31318 ft | 470 kts | 37° |
| 2026-05-07 12:52 | 39.87906 | -7.73437 | 31618 ft | 471 kts | 37° |
| 2026-05-07 12:52 | 39.90240 | -7.70450 | 31979 ft | 470 kts | 37° |
| 2026-05-07 12:52 | 39.92577 | -7.67468 | 32330 ft | 470 kts | 37° |
| 2026-05-07 12:52 | 39.94912 | -7.64494 | 32670 ft | 470 kts | 37° |
| 2026-05-07 12:53 | 39.97252 | -7.61511 | 33004 ft | 470 kts | 37° |
| 2026-05-07 12:53 | 39.99588 | -7.58531 | 33401 ft | 470 kts | 36° |
| 2026-05-07 12:53 | 40.01923 | -7.55551 | 33864 ft | 468 kts | 36° |
| 2026-05-07 12:53 | 40.04245 | -7.52589 | 34227 ft | 466 kts | 36° |
| 2026-05-07 12:54 | 40.06565 | -7.49631 | 34491 ft | 466 kts | 36° |
| 2026-05-07 12:54 | 40.08882 | -7.46672 | 34758 ft | 467 kts | 36° |
| 2026-05-07 12:54 | 40.11203 | -7.43700 | 35030 ft | 467 kts | 37° |
| 2026-05-07 12:54 | 40.13527 | -7.40720 | 35281 ft | 467 kts | 37° |
| 2026-05-07 12:55 | 40.15841 | -7.37744 | 35526 ft | 468 kts | 37° |
| 2026-05-07 12:55 | 40.18162 | -7.34758 | 35773 ft | 469 kts | 37° |
| 2026-05-07 12:55 | 40.20491 | -7.31764 | 35905 ft | 469 kts | 37° |
| 2026-05-07 12:55 | 40.22803 | -7.28789 | 35934 ft | 466 kts | 37° |
| 2026-05-07 12:56 | 40.27409 | -7.22854 | 35928 ft | 463 kts | 38° |
| 2026-05-07 12:56 | 40.31989 | -7.16944 | 35930 ft | 461 kts | 38° |
| 2026-05-07 12:57 | 40.36553 | -7.11043 | 35934 ft | 461 kts | 38° |
| 2026-05-07 12:57 | 40.41110 | -7.05118 | 35934 ft | 461 kts | 38° |
| 2026-05-07 12:58 | 40.45662 | -6.99198 | 35937 ft | 461 kts | 38° |
| 2026-05-07 12:58 | 40.50228 | -6.93268 | 35938 ft | 461 kts | 38° |
| 2026-05-07 12:59 | 40.54781 | -6.87332 | 35937 ft | 461 kts | 38° |
| 2026-05-07 12:59 | 40.59332 | -6.81379 | 35959 ft | 461 kts | 39° |
| 2026-05-07 13:00 | 40.63859 | -6.75436 | 35958 ft | 459 kts | 39° |
| 2026-05-07 13:00 | 40.68381 | -6.69506 | 35957 ft | 458 kts | 39° |
| 2026-05-07 13:01 | 40.72892 | -6.63572 | 35972 ft | 458 kts | 39° |
| 2026-05-07 13:01 | 40.77395 | -6.57635 | 35963 ft | 457 kts | 39° |
| 2026-05-07 13:02 | 40.81885 | -6.51698 | 35958 ft | 456 kts | 39° |
| 2026-05-07 13:02 | 40.86366 | -6.45764 | 35972 ft | 456 kts | 40° |
| 2026-05-07 13:03 | 40.90842 | -6.39828 | 35961 ft | 456 kts | 40° |
| 2026-05-07 13:03 | 40.95313 | -6.33879 | 35959 ft | 456 kts | 40° |
| 2026-05-07 13:04 | 40.99784 | -6.27938 | 35964 ft | 455 kts | 39° |
| 2026-05-07 13:04 | 41.04416 | -6.22274 | 35956 ft | 452 kts | 37° |
| 2026-05-07 13:05 | 41.09119 | -6.16826 | 35947 ft | 452 kts | 36° |
| 2026-05-07 13:05 | 41.13865 | -6.11272 | 35944 ft | 452 kts | 37° |
| 2026-05-07 13:06 | 41.18540 | -6.05669 | 35951 ft | 453 kts | 38° |
| 2026-05-07 13:06 | 41.23199 | -6.00040 | 35968 ft | 453 kts | 38° |
| 2026-05-07 13:07 | 41.27861 | -5.94418 | 35957 ft | 453 kts | 38° |
| 2026-05-07 13:07 | 41.32533 | -5.88804 | 35953 ft | 452 kts | 38° |
| 2026-05-07 13:08 | 41.37160 | -5.83219 | 35949 ft | 452 kts | 38° |
| 2026-05-07 13:08 | 41.41817 | -5.77584 | 35954 ft | 452 kts | 38° |
| 2026-05-07 13:09 | 41.46460 | -5.71951 | 35949 ft | 452 kts | 39° |
| 2026-05-07 13:09 | 41.51148 | -5.66286 | 35945 ft | 451 kts | 36° |
| 2026-05-07 13:10 | 41.56462 | -5.62048 | 35939 ft | 443 kts | 19° |
| 2026-05-07 13:10 | 41.62157 | -5.58863 | 35936 ft | 444 kts | 20° |
| 2026-05-07 13:11 | 41.67812 | -5.55655 | 35942 ft | 445 kts | 20° |
| 2026-05-07 13:11 | 41.73507 | -5.52417 | 35938 ft | 445 kts | 20° |
| 2026-05-07 13:12 | 41.79212 | -5.49182 | 35943 ft | 445 kts | 20° |
| 2026-05-07 13:12 | 41.84921 | -5.45946 | 35942 ft | 445 kts | 20° |
| 2026-05-07 13:13 | 41.90625 | -5.42714 | 35940 ft | 446 kts | 20° |
| 2026-05-07 13:13 | 41.96341 | -5.39466 | 35938 ft | 446 kts | 20° |
| 2026-05-07 13:14 | 42.02055 | -5.36205 | 35936 ft | 446 kts | 20° |
| 2026-05-07 13:14 | 42.07766 | -5.32927 | 35958 ft | 446 kts | 21° |
| 2026-05-07 13:15 | 42.13490 | -5.29641 | 35938 ft | 448 kts | 21° |
| 2026-05-07 13:15 | 42.19217 | -5.26353 | 35931 ft | 450 kts | 21° |
| 2026-05-07 13:16 | 42.24981 | -5.23046 | 35937 ft | 451 kts | 21° |
| 2026-05-07 13:16 | 42.30755 | -5.19732 | 35941 ft | 451 kts | 21° |
| 2026-05-07 13:17 | 42.36532 | -5.16390 | 35946 ft | 452 kts | 21° |
| 2026-05-07 13:17 | 42.42313 | -5.13041 | 35950 ft | 452 kts | 21° |
| 2026-05-07 13:18 | 42.48102 | -5.09680 | 35948 ft | 452 kts | 21° |
| 2026-05-07 13:18 | 42.53885 | -5.06313 | 35954 ft | 452 kts | 21° |
| 2026-05-07 13:19 | 42.59672 | -5.02940 | 35951 ft | 453 kts | 21° |
| 2026-05-07 13:19 | 42.65460 | -4.99568 | 35949 ft | 453 kts | 21° |
| 2026-05-07 13:20 | 42.71243 | -4.96189 | 35957 ft | 453 kts | 21° |
| 2026-05-07 13:20 | 42.77034 | -4.92800 | 35934 ft | 454 kts | 22° |
| 2026-05-07 13:21 | 42.82836 | -4.89385 | 35934 ft | 455 kts | 22° |
| 2026-05-07 13:21 | 42.88662 | -4.85951 | 35937 ft | 457 kts | 22° |
| 2026-05-07 13:22 | 42.93513 | -4.83093 | 35941 ft | 457 kts | 22° |
| 2026-05-07 13:22 | 42.99360 | -4.79647 | 35940 ft | 458 kts | 22° |
| 2026-05-07 13:23 | 43.05207 | -4.76179 | 35954 ft | 459 kts | 22° |
| 2026-05-07 13:23 | 43.11071 | -4.72697 | 35956 ft | 459 kts | 22° |
| 2026-05-07 13:24 | 43.16927 | -4.69216 | 35957 ft | 459 kts | 22° |
| 2026-05-07 13:24 | 43.22793 | -4.65731 | 35971 ft | 459 kts | 22° |
| 2026-05-07 13:25 | 43.28653 | -4.62238 | 35974 ft | 459 kts | 22° |
| 2026-05-07 13:25 | 43.34515 | -4.58734 | 35974 ft | 459 kts | 22° |
| 2026-05-07 13:26 | 43.40372 | -4.55219 | 35941 ft | 460 kts | 22° |
| 2026-05-07 13:26 | 43.46245 | -4.51685 | 35945 ft | 461 kts | 22° |
| 2026-05-07 13:27 | 43.52138 | -4.48135 | 35950 ft | 463 kts | 22° |
| 2026-05-07 13:27 | 43.58044 | -4.44579 | 35960 ft | 464 kts | 22° |
| 2026-05-07 13:28 | 43.63957 | -4.41002 | 35964 ft | 464 kts | 22° |
| 2026-05-07 13:28 | 43.69875 | -4.37413 | 35966 ft | 465 kts | 22° |
| 2026-05-07 13:29 | 43.75802 | -4.33816 | 35979 ft | 465 kts | 22° |
| 2026-05-07 13:29 | 43.81726 | -4.30214 | 35977 ft | 465 kts | 22° |
| 2026-05-07 13:30 | 43.87652 | -4.26608 | 35986 ft | 465 kts | 22° |
| 2026-05-07 13:30 | 43.93569 | -4.22989 | 35990 ft | 465 kts | 22° |
| 2026-05-07 13:31 | 43.99492 | -4.19361 | 36002 ft | 465 kts | 22° |
| 2026-05-07 13:31 | 44.05418 | -4.15726 | 36003 ft | 465 kts | 22° |
| 2026-05-07 13:32 | 44.11333 | -4.12082 | 36007 ft | 465 kts | 22° |
| 2026-05-07 13:32 | 44.17256 | -4.08430 | 36027 ft | 465 kts | 23° |
| 2026-05-07 13:33 | 44.23172 | -4.04777 | 36022 ft | 465 kts | 23° |
| 2026-05-07 13:33 | 44.29080 | -4.01117 | 36025 ft | 465 kts | 23° |
| 2026-05-07 13:34 | 44.37444 | -3.94327 | 36026 ft | 465 kts | 34° |
| 2026-05-07 13:35 | 44.42749 | -3.89159 | 36027 ft | 465 kts | 34° |
| 2026-05-07 13:35 | 44.48048 | -3.83985 | 36028 ft | 465 kts | 34° |
| 2026-05-07 13:36 | 44.53355 | -3.78800 | 36015 ft | 465 kts | 34° |
| 2026-05-07 13:36 | 44.58670 | -3.73592 | 36019 ft | 466 kts | 34° |
| 2026-05-07 13:37 | 44.63979 | -3.68361 | 36022 ft | 467 kts | 35° |
| 2026-05-07 13:37 | 44.69293 | -3.63118 | 36026 ft | 467 kts | 35° |
| 2026-05-07 13:38 | 44.74609 | -3.57872 | 36030 ft | 467 kts | 35° |
| 2026-05-07 13:38 | 44.79924 | -3.52623 | 36035 ft | 467 kts | 35° |
| 2026-05-07 13:39 | 44.85240 | -3.47351 | 36041 ft | 467 kts | 35° |
| 2026-05-07 13:39 | 44.90552 | -3.42071 | 36028 ft | 467 kts | 35° |
| 2026-05-07 13:40 | 44.95870 | -3.36779 | 36032 ft | 468 kts | 35° |
| 2026-05-07 13:40 | 45.01194 | -3.31461 | 36036 ft | 469 kts | 35° |
| 2026-05-07 13:41 | 45.06515 | -3.26131 | 36041 ft | 469 kts | 35° |
| 2026-05-07 13:41 | 45.11838 | -3.20786 | 36043 ft | 469 kts | 35° |
| 2026-05-07 13:42 | 45.17156 | -3.15429 | 36058 ft | 469 kts | 35° |
| 2026-05-07 13:42 | 45.22479 | -3.10066 | 36061 ft | 469 kts | 35° |
| 2026-05-07 13:43 | 45.27757 | -3.04741 | 36043 ft | 469 kts | 35° |
| 2026-05-07 13:43 | 45.33066 | -2.99359 | 36042 ft | 469 kts | 36° |
| 2026-05-07 13:44 | 45.38376 | -2.93966 | 36055 ft | 469 kts | 36° |
| 2026-05-07 13:44 | 45.43686 | -2.88558 | 36058 ft | 469 kts | 36° |
| 2026-05-07 13:45 | 45.48996 | -2.83154 | 36058 ft | 469 kts | 35° |
| 2026-05-07 13:45 | 45.54301 | -2.77746 | 36061 ft | 469 kts | 36° |
| 2026-05-07 13:46 | 45.59590 | -2.72313 | 36058 ft | 469 kts | 36° |
| 2026-05-07 13:46 | 45.64883 | -2.66858 | 36056 ft | 469 kts | 36° |
| 2026-05-07 13:47 | 45.70174 | -2.61405 | 36055 ft | 469 kts | 36° |
| 2026-05-07 13:47 | 45.75462 | -2.55951 | 36069 ft | 468 kts | 36° |
| 2026-05-07 13:48 | 45.80740 | -2.50485 | 36072 ft | 468 kts | 36° |
| 2026-05-07 13:48 | 45.86013 | -2.45017 | 36073 ft | 468 kts | 36° |
| 2026-05-07 13:49 | 45.91283 | -2.39546 | 36072 ft | 467 kts | 36° |
| 2026-05-07 13:49 | 45.96550 | -2.34052 | 36071 ft | 467 kts | 36° |
| 2026-05-07 13:50 | 46.01804 | -2.28553 | 36071 ft | 467 kts | 36° |
| 2026-05-07 13:50 | 46.07071 | -2.23083 | 36071 ft | 467 kts | 34° |
| 2026-05-07 13:51 | 46.12490 | -2.17929 | 36070 ft | 467 kts | 32° |
| 2026-05-07 13:51 | 46.17967 | -2.12903 | 36078 ft | 466 kts | 32° |
| 2026-05-07 13:52 | 46.23415 | -2.07820 | 36077 ft | 466 kts | 33° |
| 2026-05-07 13:52 | 46.28817 | -2.02669 | 36072 ft | 465 kts | 33° |
| 2026-05-07 13:53 | 46.34210 | -1.97489 | 36064 ft | 465 kts | 33° |
| 2026-05-07 13:53 | 46.39604 | -1.92318 | 36066 ft | 465 kts | 33° |
| 2026-05-07 13:54 | 46.44996 | -1.87158 | 36068 ft | 465 kts | 33° |
| 2026-05-07 13:54 | 46.50391 | -1.81992 | 36067 ft | 465 kts | 33° |
| 2026-05-07 13:55 | 46.55784 | -1.76804 | 36077 ft | 465 kts | 33° |
| 2026-05-07 13:55 | 46.61164 | -1.71604 | 36079 ft | 464 kts | 33° |
| 2026-05-07 13:56 | 46.66529 | -1.66412 | 36074 ft | 463 kts | 33° |
| 2026-05-07 13:56 | 46.71890 | -1.61217 | 36066 ft | 463 kts | 33° |
| 2026-05-07 13:57 | 46.77249 | -1.56012 | 36067 ft | 463 kts | 33° |
| 2026-05-07 13:57 | 46.82600 | -1.50805 | 36064 ft | 462 kts | 33° |
| 2026-05-07 13:58 | 46.87944 | -1.45581 | 36061 ft | 462 kts | 33° |
| 2026-05-07 13:58 | 46.93276 | -1.40351 | 36059 ft | 462 kts | 33° |
| 2026-05-07 13:59 | 46.98349 | -1.34596 | 36060 ft | 462 kts | 46° |
| 2026-05-07 13:59 | 47.02647 | -1.27609 | 36066 ft | 462 kts | 48° |
| 2026-05-07 14:00 | 47.06938 | -1.20598 | 36055 ft | 462 kts | 48° |
| 2026-05-07 14:00 | 47.11238 | -1.13574 | 36063 ft | 462 kts | 48° |
| 2026-05-07 14:01 | 47.15527 | -1.06538 | 36062 ft | 462 kts | 48° |
| 2026-05-07 14:01 | 47.19800 | -0.99490 | 36074 ft | 462 kts | 48° |
| 2026-05-07 14:02 | 47.24079 | -0.92423 | 36080 ft | 462 kts | 48° |
| 2026-05-07 14:02 | 47.28357 | -0.85354 | 36080 ft | 462 kts | 48° |
| 2026-05-07 14:03 | 47.32622 | -0.78279 | 36074 ft | 462 kts | 48° |
| 2026-05-07 14:03 | 47.36881 | -0.71178 | 36074 ft | 462 kts | 48° |
| 2026-05-07 14:04 | 47.41131 | -0.64080 | 36091 ft | 462 kts | 48° |
| 2026-05-07 14:04 | 47.45670 | -0.57410 | 36091 ft | 460 kts | 36° |
| 2026-05-07 14:05 | 47.49939 | -0.52720 | 36091 ft | 460 kts | 36° |
| 2026-05-07 14:05 | 47.55072 | -0.47061 | 36090 ft | 460 kts | 36° |
| 2026-05-07 14:06 | 47.60220 | -0.41356 | 36090 ft | 460 kts | 36° |
| 2026-05-07 14:06 | 47.65309 | -0.35711 | 36088 ft | 459 kts | 36° |
| 2026-05-07 14:07 | 47.70449 | -0.29996 | 36087 ft | 459 kts | 36° |
| 2026-05-07 14:07 | 47.75563 | -0.24295 | 36086 ft | 459 kts | 36° |
| 2026-05-07 14:08 | 47.80635 | -0.18626 | 36093 ft | 459 kts | 36° |
| 2026-05-07 14:08 | 47.85737 | -0.12901 | 36096 ft | 459 kts | 36° |
| 2026-05-07 14:09 | 47.90835 | -0.07172 | 36095 ft | 459 kts | 36° |
| 2026-05-07 14:09 | 47.95925 | -0.01438 | 36094 ft | 458 kts | 36° |
| 2026-05-07 14:10 | 48.01015 | 0.04302 | 36091 ft | 458 kts | 36° |
| 2026-05-07 14:10 | 48.06129 | 0.10092 | 36102 ft | 458 kts | 36° |
| 2026-05-07 14:11 | 48.11163 | 0.15802 | 36100 ft | 457 kts | 36° |
| 2026-05-07 14:11 | 48.16234 | 0.21570 | 36102 ft | 457 kts | 36° |
| 2026-05-07 14:12 | 48.21317 | 0.27387 | 36099 ft | 457 kts | 36° |
| 2026-05-07 14:12 | 48.26341 | 0.33128 | 36106 ft | 457 kts | 36° |
| 2026-05-07 14:13 | 48.31393 | 0.38902 | 36106 ft | 457 kts | 36° |
| 2026-05-07 14:13 | 48.36437 | 0.44701 | 36100 ft | 456 kts | 36° |
| 2026-05-07 14:14 | 48.41477 | 0.50519 | 36100 ft | 456 kts | 36° |
| 2026-05-07 14:14 | 48.46516 | 0.56338 | 36108 ft | 456 kts | 36° |
| 2026-05-07 14:15 | 48.51544 | 0.62156 | 36106 ft | 456 kts | 37° |
| 2026-05-07 14:15 | 48.56574 | 0.67998 | 36104 ft | 456 kts | 37° |
| 2026-05-07 14:16 | 48.61592 | 0.73848 | 36098 ft | 455 kts | 37° |
| 2026-05-07 14:16 | 48.66601 | 0.79701 | 36105 ft | 455 kts | 37° |
| 2026-05-07 14:17 | 48.71612 | 0.85567 | 36100 ft | 455 kts | 37° |
| 2026-05-07 14:17 | 48.76620 | 0.91436 | 36097 ft | 455 kts | 36° |
| 2026-05-07 14:18 | 48.81660 | 0.97235 | 36104 ft | 455 kts | 36° |
| 2026-05-07 14:18 | 48.86715 | 1.03015 | 36106 ft | 455 kts | 36° |
| 2026-05-07 14:19 | 48.91760 | 1.08822 | 36109 ft | 455 kts | 36° |
| 2026-05-07 14:19 | 48.96785 | 1.14644 | 36110 ft | 454 kts | 36° |
| 2026-05-07 14:20 | 49.01810 | 1.20497 | 36110 ft | 455 kts | 36° |
| 2026-05-07 14:20 | 49.06530 | 1.26907 | 36110 ft | 455 kts | 43° |
| 2026-05-07 14:21 | 49.11131 | 1.33545 | 36112 ft | 455 kts | 43° |
| 2026-05-07 14:21 | 49.15724 | 1.40189 | 36109 ft | 455 kts | 43° |
| 2026-05-07 14:22 | 49.20323 | 1.46850 | 36110 ft | 455 kts | 42° |
| 2026-05-07 14:22 | 49.24915 | 1.53516 | 36108 ft | 455 kts | 43° |
| 2026-05-07 14:23 | 49.29494 | 1.60186 | 36116 ft | 454 kts | 43° |
| 2026-05-07 14:23 | 49.34073 | 1.66864 | 36117 ft | 454 kts | 43° |
| 2026-05-07 14:24 | 49.38651 | 1.73557 | 36115 ft | 454 kts | 43° |
| 2026-05-07 14:24 | 49.43219 | 1.80262 | 36113 ft | 454 kts | 43° |
| 2026-05-07 14:25 | 49.47784 | 1.86989 | 36114 ft | 454 kts | 43° |
| 2026-05-07 14:25 | 49.52345 | 1.93718 | 36144 ft | 455 kts | 43° |
| 2026-05-07 14:26 | 49.56906 | 2.00468 | 36142 ft | 455 kts | 43° |
| 2026-05-07 14:26 | 49.61523 | 2.07330 | 36140 ft | 455 kts | 43° |
| 2026-05-07 14:27 | 49.66022 | 2.14023 | 36138 ft | 455 kts | 43° |
| 2026-05-07 14:27 | 49.70537 | 2.20754 | 36140 ft | 455 kts | 43° |
| 2026-05-07 14:28 | 49.75086 | 2.27562 | 36143 ft | 455 kts | 43° |
| 2026-05-07 14:28 | 49.79668 | 2.34439 | 36139 ft | 455 kts | 43° |
| 2026-05-07 14:29 | 49.84208 | 2.41279 | 36138 ft | 455 kts | 43° |
| 2026-05-07 14:29 | 49.88743 | 2.48121 | 36136 ft | 455 kts | 43° |
| 2026-05-07 14:30 | 49.93274 | 2.54978 | 36143 ft | 455 kts | 43° |
| 2026-05-07 14:30 | 49.97803 | 2.61854 | 36153 ft | 455 kts | 43° |
| 2026-05-07 14:31 | 50.02327 | 2.68741 | 36149 ft | 455 kts | 43° |
| 2026-05-07 14:31 | 50.06843 | 2.75640 | 36144 ft | 455 kts | 43° |
| 2026-05-07 14:32 | 50.11359 | 2.82548 | 36138 ft | 455 kts | 43° |
| 2026-05-07 14:32 | 50.15870 | 2.89462 | 36148 ft | 455 kts | 43° |
| 2026-05-07 14:33 | 50.20366 | 2.96379 | 36144 ft | 454 kts | 43° |
| 2026-05-07 14:33 | 50.24866 | 3.03323 | 36140 ft | 454 kts | 44° |
| 2026-05-07 14:34 | 50.29342 | 3.10266 | 36140 ft | 454 kts | 44° |
| 2026-05-07 14:34 | 50.33827 | 3.17230 | 36137 ft | 454 kts | 44° |
| 2026-05-07 14:35 | 50.38306 | 3.24192 | 36144 ft | 454 kts | 43° |
| 2026-05-07 14:35 | 50.43428 | 3.29859 | 36140 ft | 450 kts | 25° |
| 2026-05-07 14:36 | 50.49031 | 3.34226 | 36138 ft | 450 kts | 25° |
| 2026-05-07 14:36 | 50.54646 | 3.38519 | 36131 ft | 449 kts | 23° |
| 2026-05-07 14:37 | 50.60366 | 3.42498 | 36147 ft | 449 kts | 22° |
| 2026-05-07 14:37 | 50.68963 | 3.48358 | 36139 ft | 449 kts | 22° |
| 2026-05-07 14:38 | 50.74674 | 3.52358 | 36134 ft | 449 kts | 22° |
| 2026-05-07 14:38 | 50.80364 | 3.56401 | 36131 ft | 449 kts | 22° |
| 2026-05-07 14:39 | 50.86053 | 3.60443 | 36140 ft | 448 kts | 22° |
| 2026-05-07 14:39 | 50.91752 | 3.64462 | 36135 ft | 448 kts | 22° |
| 2026-05-07 14:40 | 50.97439 | 3.68498 | 36134 ft | 448 kts | 22° |
| 2026-05-07 14:40 | 51.03126 | 3.72554 | 36129 ft | 448 kts | 23° |
| 2026-05-07 14:41 | 51.08802 | 3.76607 | 36126 ft | 448 kts | 23° |
| 2026-05-07 14:41 | 51.14484 | 3.80681 | 36119 ft | 447 kts | 23° |
| 2026-05-07 14:42 | 51.20157 | 3.84773 | 36125 ft | 447 kts | 23° |
| 2026-05-07 14:42 | 51.25836 | 3.88856 | 36139 ft | 450 kts | 23° |
| 2026-05-07 14:43 | 51.28704 | 3.90921 | 36292 ft | 454 kts | 23° |
| 2026-05-07 14:43 | 51.31586 | 3.93003 | 36516 ft | 455 kts | 23° |
| 2026-05-07 14:43 | 51.34472 | 3.95094 | 36774 ft | 456 kts | 23° |
| 2026-05-07 14:43 | 51.37361 | 3.97190 | 37031 ft | 456 kts | 23° |
| 2026-05-07 14:44 | 51.40250 | 3.99290 | 37279 ft | 457 kts | 23° |
| 2026-05-07 14:44 | 51.43149 | 4.01403 | 37524 ft | 457 kts | 23° |
| 2026-05-07 14:44 | 51.46021 | 4.03579 | 37767 ft | 458 kts | 28° |
| 2026-05-07 14:44 | 51.48685 | 4.06373 | 37990 ft | 459 kts | 38° |
| 2026-05-07 14:45 | 51.50281 | 4.08603 | 38148 ft | 459 kts | 45° |
| 2026-05-07 14:45 | 51.52492 | 4.12294 | 38382 ft | 459 kts | 46° |
| 2026-05-07 14:45 | 51.54725 | 4.16054 | 38615 ft | 459 kts | 46° |
| 2026-05-07 14:45 | 51.56937 | 4.19775 | 38811 ft | 460 kts | 46° |
| 2026-05-07 14:46 | 51.59145 | 4.23492 | 38981 ft | 460 kts | 46° |
| 2026-05-07 14:46 | 51.61357 | 4.27216 | 39054 ft | 461 kts | 46° |
| 2026-05-07 14:46 | 51.65774 | 4.34686 | 39065 ft | 461 kts | 46° |
| 2026-05-07 14:47 | 51.70190 | 4.42171 | 39079 ft | 460 kts | 46° |
| 2026-05-07 14:47 | 51.74595 | 4.49655 | 39081 ft | 460 kts | 46° |
| 2026-05-07 14:48 | 51.78996 | 4.57162 | 39082 ft | 460 kts | 46° |
| 2026-05-07 14:48 | 51.83387 | 4.64694 | 39084 ft | 460 kts | 46° |
| 2026-05-07 14:49 | 51.87781 | 4.72231 | 39081 ft | 461 kts | 46° |
| 2026-05-07 14:49 | 51.92171 | 4.79783 | 39083 ft | 461 kts | 46° |
| 2026-05-07 14:50 | 51.96563 | 4.87368 | 39091 ft | 461 kts | 47° |
| 2026-05-07 14:50 | 52.00472 | 4.94156 | 39089 ft | 465 kts | 47° |
| 2026-05-07 14:51 | 52.04929 | 5.01910 | 39084 ft | 474 kts | 47° |
| 2026-05-07 14:51 | 52.09480 | 5.09832 | 39082 ft | 483 kts | 47° |
| 2026-05-07 14:52 | 52.14064 | 5.17818 | 39075 ft | 474 kts | 47° |
| 2026-05-07 14:52 | 52.18477 | 5.25554 | 39080 ft | 461 kts | 47° |
| 2026-05-07 14:53 | 52.22903 | 5.33351 | 39079 ft | 459 kts | 47° |
| 2026-05-07 14:53 | 52.27174 | 5.40905 | 39081 ft | 459 kts | 47° |
| 2026-05-07 14:54 | 52.31509 | 5.48577 | 39083 ft | 459 kts | 47° |
| 2026-05-07 14:54 | 52.35824 | 5.56236 | 39087 ft | 459 kts | 47° |
| 2026-05-07 14:55 | 52.40155 | 5.63951 | 39087 ft | 460 kts | 47° |
| 2026-05-07 14:55 | 52.44480 | 5.71675 | 39094 ft | 460 kts | 47° |
| 2026-05-07 14:56 | 52.48798 | 5.79416 | 39082 ft | 460 kts | 47° |
| 2026-05-07 14:56 | 52.53109 | 5.87180 | 39087 ft | 460 kts | 47° |
| 2026-05-07 14:57 | 52.57416 | 5.94961 | 39091 ft | 460 kts | 47° |
| 2026-05-07 14:57 | 52.61721 | 6.02761 | 39091 ft | 460 kts | 48° |
| 2026-05-07 14:58 | 52.66021 | 6.10553 | 39095 ft | 460 kts | 48° |
| 2026-05-07 14:58 | 52.70316 | 6.18366 | 39098 ft | 459 kts | 48° |
| 2026-05-07 14:59 | 52.74595 | 6.26184 | 39092 ft | 459 kts | 48° |
| 2026-05-07 14:59 | 52.78869 | 6.34005 | 39090 ft | 458 kts | 48° |
| 2026-05-07 15:00 | 52.83135 | 6.41842 | 39091 ft | 458 kts | 48° |
| 2026-05-07 15:00 | 52.87388 | 6.49703 | 39093 ft | 458 kts | 48° |
| 2026-05-07 15:01 | 52.91631 | 6.57569 | 39099 ft | 458 kts | 48° |
| 2026-05-07 15:01 | 52.95873 | 6.65441 | 39095 ft | 458 kts | 48° |
| 2026-05-07 15:02 | 53.00114 | 6.73327 | 39097 ft | 458 kts | 48° |
| 2026-05-07 15:02 | 53.04346 | 6.81222 | 39096 ft | 457 kts | 48° |
| 2026-05-07 15:03 | 53.08572 | 6.89140 | 39095 ft | 457 kts | 49° |
| 2026-05-07 15:03 | 53.12781 | 6.97062 | 39091 ft | 457 kts | 49° |
| 2026-05-07 15:04 | 53.16992 | 7.05002 | 39090 ft | 457 kts | 49° |
| 2026-05-07 15:04 | 53.21208 | 7.12966 | 39090 ft | 457 kts | 49° |
| 2026-05-07 15:05 | 53.25400 | 7.20931 | 39088 ft | 458 kts | 49° |
| 2026-05-07 15:05 | 53.29631 | 7.28992 | 39093 ft | 458 kts | 49° |
| 2026-05-07 15:06 | 53.33893 | 7.37115 | 39096 ft | 458 kts | 49° |
| 2026-05-07 15:06 | 53.38137 | 7.45265 | 39098 ft | 458 kts | 49° |
| 2026-05-07 15:07 | 53.42321 | 7.53322 | 39095 ft | 458 kts | 49° |
| 2026-05-07 15:07 | 53.46503 | 7.61388 | 39098 ft | 458 kts | 49° |
| 2026-05-07 15:08 | 53.50702 | 7.69512 | 39099 ft | 458 kts | 49° |
| 2026-05-07 15:08 | 53.54928 | 7.77719 | 39100 ft | 459 kts | 49° |
| 2026-05-07 15:09 | 53.58427 | 7.84544 | 39093 ft | 459 kts | 49° |
| 2026-05-07 15:09 | 53.62616 | 7.92738 | 39097 ft | 459 kts | 49° |
| 2026-05-07 15:10 | 53.66841 | 8.01019 | 39105 ft | 459 kts | 49° |
| 2026-05-07 15:10 | 53.71033 | 8.09255 | 39108 ft | 460 kts | 49° |
| 2026-05-07 15:11 | 53.75189 | 8.17470 | 39111 ft | 460 kts | 49° |
| 2026-05-07 15:11 | 53.79400 | 8.25806 | 39116 ft | 460 kts | 49° |
| 2026-05-07 15:12 | 53.83551 | 8.34033 | 39113 ft | 460 kts | 50° |
| 2026-05-07 15:12 | 53.87720 | 8.42356 | 39106 ft | 460 kts | 50° |
| 2026-05-07 15:13 | 53.91884 | 8.50691 | 39105 ft | 460 kts | 50° |
| 2026-05-07 15:13 | 53.96015 | 8.58959 | 39114 ft | 459 kts | 47° |
| 2026-05-07 15:14 | 54.00676 | 8.66466 | 39110 ft | 459 kts | 42° |
| 2026-05-07 15:14 | 54.05369 | 8.73838 | 39111 ft | 459 kts | 43° |
| 2026-05-07 15:15 | 54.10044 | 8.81233 | 39119 ft | 459 kts | 43° |
| 2026-05-07 15:15 | 54.14715 | 8.88658 | 39122 ft | 459 kts | 43° |
| 2026-05-07 15:16 | 54.19381 | 8.96077 | 39117 ft | 459 kts | 43° |
| 2026-05-07 15:16 | 54.24048 | 9.03508 | 39120 ft | 458 kts | 43° |
| 2026-05-07 15:17 | 54.28710 | 9.10955 | 39111 ft | 458 kts | 43° |
| 2026-05-07 15:17 | 54.33366 | 9.18434 | 39117 ft | 459 kts | 43° |
| 2026-05-07 15:18 | 54.38007 | 9.25929 | 39111 ft | 459 kts | 43° |
| 2026-05-07 15:18 | 54.42680 | 9.33492 | 39122 ft | 459 kts | 43° |
| 2026-05-07 15:19 | 54.47345 | 9.41055 | 39127 ft | 460 kts | 43° |
| 2026-05-07 15:19 | 54.52072 | 9.48747 | 39129 ft | 460 kts | 43° |
| 2026-05-07 15:20 | 54.56779 | 9.56433 | 39128 ft | 460 kts | 43° |
| 2026-05-07 15:20 | 54.61444 | 9.64080 | 39129 ft | 460 kts | 43° |
| 2026-05-07 15:21 | 54.66071 | 9.71689 | 39139 ft | 460 kts | 43° |
| 2026-05-07 15:21 | 54.69957 | 9.78105 | 39132 ft | 460 kts | 43° |
| 2026-05-07 15:22 | 54.74577 | 9.85739 | 39133 ft | 460 kts | 43° |
| 2026-05-07 15:22 | 54.79196 | 9.93400 | 39135 ft | 460 kts | 43° |
| 2026-05-07 15:23 | 54.83553 | 10.01625 | 39137 ft | 460 kts | 50° |
| 2026-05-07 15:23 | 54.87686 | 10.10095 | 39156 ft | 460 kts | 50° |
| 2026-05-07 15:24 | 54.91817 | 10.18594 | 39155 ft | 460 kts | 50° |
| 2026-05-07 15:24 | 54.95936 | 10.27113 | 39151 ft | 460 kts | 50° |
| 2026-05-07 15:25 | 55.00053 | 10.35623 | 39140 ft | 460 kts | 50° |
| 2026-05-07 15:25 | 55.04194 | 10.44203 | 39140 ft | 460 kts | 50° |
| 2026-05-07 15:26 | 55.08303 | 10.52760 | 39149 ft | 460 kts | 50° |
| 2026-05-07 15:26 | 55.12431 | 10.61399 | 39146 ft | 459 kts | 50° |
| 2026-05-07 15:27 | 55.16522 | 10.69980 | 39141 ft | 459 kts | 50° |
| 2026-05-07 15:27 | 55.20599 | 10.78570 | 39140 ft | 459 kts | 50° |
| 2026-05-07 15:28 | 55.24675 | 10.87194 | 39143 ft | 459 kts | 50° |
| 2026-05-07 15:28 | 55.28774 | 10.95887 | 39143 ft | 459 kts | 50° |
| 2026-05-07 15:29 | 55.32837 | 11.04540 | 39143 ft | 459 kts | 50° |
| 2026-05-07 15:29 | 55.36833 | 11.13088 | 39133 ft | 459 kts | 50° |
| 2026-05-07 15:30 | 55.40890 | 11.21778 | 39132 ft | 459 kts | 50° |
| 2026-05-07 15:30 | 55.44971 | 11.30549 | 39135 ft | 460 kts | 50° |
| 2026-05-07 15:31 | 55.49008 | 11.39282 | 39136 ft | 460 kts | 51° |
| 2026-05-07 15:31 | 55.53048 | 11.48036 | 39133 ft | 460 kts | 51° |
| 2026-05-07 15:32 | 55.57088 | 11.56799 | 39138 ft | 460 kts | 51° |
| 2026-05-07 15:32 | 55.61118 | 11.65591 | 39143 ft | 460 kts | 51° |
| 2026-05-07 15:33 | 55.65129 | 11.74397 | 39146 ft | 460 kts | 51° |
| 2026-05-07 15:33 | 55.69138 | 11.83215 | 39148 ft | 460 kts | 51° |
| 2026-05-07 15:34 | 55.73152 | 11.92070 | 39142 ft | 460 kts | 51° |
| 2026-05-07 15:34 | 55.77169 | 12.00940 | 39140 ft | 461 kts | 51° |
| 2026-05-07 15:35 | 55.81202 | 12.09892 | 39139 ft | 461 kts | 51° |
| 2026-05-07 15:35 | 55.85205 | 12.18844 | 39132 ft | 461 kts | 51° |
| 2026-05-07 15:36 | 55.89183 | 12.27759 | 39131 ft | 461 kts | 51° |
| 2026-05-07 15:36 | 55.93169 | 12.36720 | 39132 ft | 461 kts | 51° |
| 2026-05-07 15:37 | 55.97152 | 12.45700 | 39143 ft | 462 kts | 51° |
| 2026-05-07 15:37 | 56.01138 | 12.54728 | 39143 ft | 462 kts | 51° |
| 2026-05-07 15:38 | 56.05109 | 12.63756 | 39127 ft | 463 kts | 51° |
| 2026-05-07 15:38 | 56.09097 | 12.72866 | 39127 ft | 463 kts | 52° |
| 2026-05-07 15:39 | 56.13056 | 12.81918 | 39128 ft | 464 kts | 51° |
| 2026-05-07 15:39 | 56.17034 | 12.91034 | 39130 ft | 464 kts | 51° |
| 2026-05-07 15:40 | 56.21019 | 13.00235 | 39131 ft | 464 kts | 52° |
| 2026-05-07 15:40 | 56.24938 | 13.09326 | 39129 ft | 463 kts | 52° |
| 2026-05-07 15:41 | 56.28885 | 13.18508 | 39119 ft | 463 kts | 52° |
| 2026-05-07 15:41 | 56.32852 | 13.27753 | 39118 ft | 463 kts | 52° |
| 2026-05-07 15:42 | 56.36758 | 13.36896 | 39107 ft | 463 kts | 52° |
| 2026-05-07 15:42 | 56.40691 | 13.46134 | 39111 ft | 464 kts | 52° |
| 2026-05-07 15:43 | 56.44616 | 13.55394 | 39098 ft | 465 kts | 52° |
| 2026-05-07 15:43 | 56.48539 | 13.64710 | 39099 ft | 465 kts | 52° |
| 2026-05-07 15:44 | 56.52455 | 13.74029 | 39096 ft | 466 kts | 52° |
| 2026-05-07 15:44 | 56.56377 | 13.83377 | 39093 ft | 466 kts | 52° |
| 2026-05-07 15:45 | 56.60291 | 13.92745 | 39105 ft | 466 kts | 52° |
| 2026-05-07 15:45 | 56.64228 | 14.02209 | 39100 ft | 466 kts | 52° |
| 2026-05-07 15:46 | 56.70050 | 14.16305 | 39079 ft | 467 kts | 53° |
| 2026-05-07 15:47 | 56.73943 | 14.25767 | 39078 ft | 467 kts | 53° |
| 2026-05-07 15:47 | 56.77862 | 14.35322 | 39070 ft | 467 kts | 53° |
| 2026-05-07 15:48 | 56.81747 | 14.44824 | 39087 ft | 468 kts | 52° |
| 2026-05-07 15:48 | 56.85632 | 14.54374 | 39080 ft | 468 kts | 53° |
| 2026-05-07 15:49 | 56.88856 | 14.62325 | 39077 ft | 469 kts | 53° |
| 2026-05-07 15:49 | 56.92724 | 14.71914 | 39071 ft | 469 kts | 53° |
| 2026-05-07 15:50 | 56.96617 | 14.81606 | 39085 ft | 469 kts | 53° |
| 2026-05-07 15:50 | 57.00505 | 14.91303 | 39070 ft | 469 kts | 53° |
| 2026-05-07 15:51 | 57.04377 | 15.01001 | 39080 ft | 470 kts | 53° |
| 2026-05-07 15:51 | 57.08256 | 15.10779 | 39083 ft | 471 kts | 53° |
| 2026-05-07 15:52 | 57.12114 | 15.20511 | 39076 ft | 471 kts | 53° |
| 2026-05-07 15:52 | 57.15969 | 15.30268 | 39078 ft | 471 kts | 53° |
| 2026-05-07 15:53 | 57.19814 | 15.40065 | 39080 ft | 471 kts | 53° |
| 2026-05-07 15:53 | 57.23648 | 15.49881 | 39082 ft | 472 kts | 53° |
| 2026-05-07 15:54 | 57.27477 | 15.59726 | 39090 ft | 472 kts | 53° |
| 2026-05-07 15:54 | 57.31308 | 15.69594 | 39083 ft | 472 kts | 53° |
| 2026-05-07 15:55 | 57.35138 | 15.79494 | 39083 ft | 473 kts | 53° |
| 2026-05-07 15:55 | 57.38959 | 15.89421 | 39103 ft | 474 kts | 54° |
| 2026-05-07 15:56 | 57.42774 | 15.99400 | 39116 ft | 474 kts | 54° |
| 2026-05-07 15:56 | 57.46568 | 16.09379 | 39133 ft | 474 kts | 54° |
| 2026-05-07 15:57 | 57.50405 | 16.19460 | 39119 ft | 474 kts | 53° |
| 2026-05-07 15:57 | 57.54212 | 16.29482 | 39119 ft | 474 kts | 54° |
| 2026-05-07 15:58 | 57.57995 | 16.39549 | 39119 ft | 475 kts | 54° |
| 2026-05-07 15:58 | 57.61689 | 16.49759 | 39106 ft | 475 kts | 56° |
| 2026-05-07 15:59 | 57.65306 | 16.60089 | 39111 ft | 476 kts | 56° |
| 2026-05-07 15:59 | 57.68930 | 16.70463 | 39118 ft | 477 kts | 56° |
| 2026-05-07 16:00 | 57.72571 | 16.80828 | 39123 ft | 477 kts | 56° |
| 2026-05-07 16:00 | 57.76217 | 16.91212 | 39132 ft | 477 kts | 56° |
| 2026-05-07 16:01 | 57.79851 | 17.01614 | 39131 ft | 477 kts | 56° |
| 2026-05-07 16:01 | 57.83466 | 17.12063 | 39128 ft | 477 kts | 56° |
| 2026-05-07 16:02 | 57.87074 | 17.22530 | 39152 ft | 478 kts | 56° |
| 2026-05-07 16:02 | 57.90681 | 17.33017 | 39122 ft | 478 kts | 56° |
| 2026-05-07 16:03 | 57.94295 | 17.43560 | 39116 ft | 479 kts | 56° |
| 2026-05-07 16:03 | 57.97897 | 17.54138 | 39121 ft | 480 kts | 57° |
| 2026-05-07 16:04 | 58.01493 | 17.64749 | 39124 ft | 481 kts | 57° |
| 2026-05-07 16:04 | 58.05114 | 17.75454 | 39127 ft | 481 kts | 57° |
| 2026-05-07 16:05 | 58.08701 | 17.86126 | 39147 ft | 482 kts | 57° |
| 2026-05-07 16:05 | 58.12284 | 17.96834 | 39143 ft | 482 kts | 57° |
| 2026-05-07 16:06 | 58.15864 | 18.07569 | 39144 ft | 483 kts | 57° |
| 2026-05-07 16:06 | 58.19441 | 18.18353 | 39143 ft | 483 kts | 57° |
| 2026-05-07 16:07 | 58.23002 | 18.29146 | 39142 ft | 483 kts | 57° |
| 2026-05-07 16:07 | 58.26552 | 18.39981 | 39146 ft | 483 kts | 57° |
| 2026-05-07 16:08 | 58.30105 | 18.50831 | 39162 ft | 484 kts | 57° |
| 2026-05-07 16:08 | 58.33653 | 18.61700 | 39155 ft | 484 kts | 57° |
| 2026-05-07 16:09 | 58.37191 | 18.72606 | 39149 ft | 484 kts | 57° |
| 2026-05-07 16:09 | 58.40722 | 18.83554 | 39147 ft | 484 kts | 57° |
| 2026-05-07 16:10 | 58.44234 | 18.94507 | 39146 ft | 484 kts | 58° |
| 2026-05-07 16:10 | 58.47740 | 19.05492 | 39147 ft | 484 kts | 58° |
| 2026-05-07 16:11 | 58.51243 | 19.16503 | 39146 ft | 485 kts | 58° |
| 2026-05-07 16:11 | 58.54745 | 19.27537 | 39145 ft | 486 kts | 58° |
| 2026-05-07 16:12 | 58.58238 | 19.38625 | 39150 ft | 486 kts | 58° |
| 2026-05-07 16:12 | 58.61719 | 19.49742 | 39151 ft | 487 kts | 58° |
| 2026-05-07 16:13 | 58.65198 | 19.60883 | 39146 ft | 487 kts | 58° |
| 2026-05-07 16:13 | 58.68672 | 19.72043 | 39166 ft | 487 kts | 58° |
| 2026-05-07 16:14 | 58.72138 | 19.83243 | 39159 ft | 487 kts | 58° |
| 2026-05-07 16:14 | 58.75595 | 19.94483 | 39147 ft | 488 kts | 58° |
| 2026-05-07 16:15 | 58.79043 | 20.05755 | 39145 ft | 489 kts | 58° |
| 2026-05-07 16:15 | 58.82488 | 20.17064 | 39142 ft | 489 kts | 58° |
| 2026-05-07 16:16 | 58.85919 | 20.28387 | 39143 ft | 489 kts | 58° |
| 2026-05-07 16:16 | 58.89353 | 20.39756 | 39149 ft | 490 kts | 59° |
| 2026-05-07 16:17 | 58.92777 | 20.51139 | 39141 ft | 490 kts | 59° |
| 2026-05-07 16:17 | 58.96189 | 20.62569 | 39135 ft | 490 kts | 59° |
| 2026-05-07 16:18 | 58.99594 | 20.74028 | 39135 ft | 490 kts | 59° |
| 2026-05-07 16:18 | 59.02992 | 20.85499 | 39109 ft | 491 kts | 59° |
| 2026-05-07 16:19 | 59.06410 | 20.96996 | 39136 ft | 491 kts | 58° |
| 2026-05-07 16:19 | 59.09979 | 21.08304 | 39136 ft | 491 kts | 56° |
| 2026-05-07 16:20 | 59.13603 | 21.19596 | 39135 ft | 492 kts | 57° |
| 2026-05-07 16:20 | 59.17176 | 21.30963 | 39138 ft | 492 kts | 57° |
| 2026-05-07 16:21 | 59.20706 | 21.42399 | 39140 ft | 492 kts | 58° |
| 2026-05-07 16:21 | 59.23655 | 21.52017 | 39139 ft | 492 kts | 58° |
| 2026-05-07 16:22 | 59.27176 | 21.63481 | 39152 ft | 492 kts | 58° |
| 2026-05-07 16:22 | 59.30704 | 21.74977 | 39145 ft | 493 kts | 58° |
| 2026-05-07 16:23 | 59.34209 | 21.86510 | 39126 ft | 493 kts | 58° |
| 2026-05-07 16:23 | 59.37712 | 21.98055 | 39130 ft | 494 kts | 58° |
| 2026-05-07 16:24 | 59.41224 | 22.09676 | 39123 ft | 494 kts | 58° |
| 2026-05-07 16:24 | 59.44718 | 22.21278 | 38988 ft | 493 kts | 58° |
| 2026-05-07 16:24 | 59.46461 | 22.27090 | 38748 ft | 494 kts | 58° |
| 2026-05-07 16:25 | 59.48202 | 22.32924 | 38480 ft | 494 kts | 58° |
| 2026-05-07 16:25 | 59.49940 | 22.38770 | 37799 ft | 497 kts | 58° |
| 2026-05-07 16:25 | 59.51687 | 22.44662 | 37085 ft | 498 kts | 58° |
| 2026-05-07 16:25 | 59.53425 | 22.50534 | 36286 ft | 500 kts | 58° |
| 2026-05-07 16:26 | 59.55183 | 22.56485 | 35425 ft | 504 kts | 58° |
| 2026-05-07 16:26 | 59.56948 | 22.62480 | 34763 ft | 504 kts | 58° |
| 2026-05-07 16:26 | 59.58694 | 22.68441 | 34224 ft | 499 kts | 58° |
| 2026-05-07 16:26 | 59.60421 | 22.74363 | 33545 ft | 496 kts | 58° |
| 2026-05-07 16:27 | 59.62130 | 22.80238 | 33024 ft | 490 kts | 58° |
| 2026-05-07 16:27 | 59.63820 | 22.86056 | 32448 ft | 485 kts | 58° |
| 2026-05-07 16:27 | 59.65493 | 22.91816 | 31890 ft | 481 kts | 57° |
| 2026-05-07 16:27 | 59.67148 | 22.97528 | 31338 ft | 477 kts | 57° |
| 2026-05-07 16:28 | 59.68786 | 23.03194 | 30795 ft | 473 kts | 57° |
| 2026-05-07 16:28 | 59.70410 | 23.08818 | 30255 ft | 469 kts | 57° |
| 2026-05-07 16:28 | 59.72023 | 23.14414 | 29658 ft | 465 kts | 57° |
| 2026-05-07 16:28 | 59.73606 | 23.19928 | 29167 ft | 458 kts | 57° |
| 2026-05-07 16:29 | 59.75170 | 23.25388 | 28655 ft | 453 kts | 57° |
| 2026-05-07 16:29 | 59.76719 | 23.30799 | 28173 ft | 447 kts | 57° |
| 2026-05-07 16:29 | 59.78245 | 23.36133 | 27691 ft | 443 kts | 57° |
| 2026-05-07 16:29 | 59.79755 | 23.41432 | 27225 ft | 438 kts | 57° |
| 2026-05-07 16:30 | 59.81247 | 23.46684 | 26764 ft | 435 kts | 57° |
| 2026-05-07 16:30 | 59.82725 | 23.51896 | 26316 ft | 433 kts | 57° |
| 2026-05-07 16:30 | 59.84200 | 23.57106 | 25855 ft | 431 kts | 57° |
| 2026-05-07 16:30 | 59.85661 | 23.62290 | 25381 ft | 429 kts | 57° |
| 2026-05-07 16:31 | 59.87110 | 23.67451 | 24915 ft | 427 kts | 57° |
| 2026-05-07 16:31 | 59.88552 | 23.72609 | 24403 ft | 425 kts | 58° |
| 2026-05-07 16:31 | 59.89987 | 23.77744 | 23930 ft | 423 kts | 58° |
| 2026-05-07 16:31 | 59.91596 | 23.82537 | 23696 ft | 410 kts | 47° |
| 2026-05-07 16:32 | 59.93504 | 23.86634 | 23341 ft | 398 kts | 39° |
| 2026-05-07 16:32 | 59.95584 | 23.90234 | 22714 ft | 394 kts | 31° |
| 2026-05-07 16:32 | 59.97787 | 23.93469 | 22190 ft | 392 kts | 30° |
| 2026-05-07 16:32 | 59.99989 | 23.96661 | 21724 ft | 389 kts | 30° |
| 2026-05-07 16:33 | 60.02156 | 23.99801 | 21512 ft | 379 kts | 30° |
| 2026-05-07 16:33 | 60.04251 | 24.02860 | 21411 ft | 368 kts | 30° |
| 2026-05-07 16:33 | 60.06280 | 24.05869 | 21287 ft | 357 kts | 30° |
| 2026-05-07 16:33 | 60.08239 | 24.08800 | 21136 ft | 347 kts | 30° |
| 2026-05-07 16:34 | 60.10147 | 24.11674 | 21018 ft | 338 kts | 30° |
| 2026-05-07 16:34 | 60.11989 | 24.14469 | 20882 ft | 329 kts | 30° |
| 2026-05-07 16:34 | 60.13785 | 24.17210 | 20749 ft | 320 kts | 30° |
| 2026-05-07 16:34 | 60.15530 | 24.19890 | 20618 ft | 311 kts | 30° |
| 2026-05-07 16:35 | 60.17223 | 24.22508 | 20478 ft | 303 kts | 30° |
| 2026-05-07 16:35 | 60.18878 | 24.25080 | 20245 ft | 300 kts | 30° |
| 2026-05-07 16:35 | 60.20521 | 24.27639 | 19979 ft | 298 kts | 30° |
| 2026-05-07 16:35 | 60.22153 | 24.30180 | 19698 ft | 296 kts | 30° |
| 2026-05-07 16:36 | 60.23776 | 24.32709 | 19436 ft | 294 kts | 30° |
| 2026-05-07 16:36 | 60.25386 | 24.35217 | 19178 ft | 292 kts | 30° |
| 2026-05-07 16:36 | 60.26994 | 24.37722 | 18918 ft | 291 kts | 30° |
| 2026-05-07 16:36 | 60.28587 | 24.40204 | 18663 ft | 290 kts | 30° |
| 2026-05-07 16:37 | 60.30178 | 24.42689 | 18401 ft | 289 kts | 30° |
| 2026-05-07 16:37 | 60.31764 | 24.45167 | 18124 ft | 287 kts | 30° |
| 2026-05-07 16:37 | 60.33340 | 24.47630 | 17850 ft | 285 kts | 30° |
| 2026-05-07 16:37 | 60.34903 | 24.50069 | 17575 ft | 284 kts | 30° |
| 2026-05-07 16:38 | 60.36462 | 24.52497 | 17289 ft | 282 kts | 31° |
| 2026-05-07 16:38 | 60.38071 | 24.54661 | 17031 ft | 270 kts | 13° |
| 2026-05-07 16:38 | 60.39824 | 24.55245 | 16765 ft | 246 kts | 342° |
| 2026-05-07 16:38 | 60.41316 | 24.54076 | 16480 ft | 222 kts | 312° |
| 2026-05-07 16:39 | 60.42357 | 24.51862 | 16046 ft | 218 kts | 302° |
| 2026-05-07 16:39 | 60.43297 | 24.49418 | 15471 ft | 222 kts | 301° |
| 2026-05-07 16:39 | 60.44222 | 24.46907 | 15019 ft | 222 kts | 301° |
| 2026-05-07 16:39 | 60.45129 | 24.44395 | 14590 ft | 221 kts | 301° |
| 2026-05-07 16:40 | 60.46166 | 24.41937 | 13721 ft | 243 kts | 318° |
| 2026-05-07 16:40 | 60.47785 | 24.40547 | 12767 ft | 268 kts | 347° |
| 2026-05-07 16:40 | 60.49711 | 24.40900 | 11788 ft | 291 kts | 15° |
| 2026-05-07 16:40 | 60.51467 | 24.43036 | 10795 ft | 309 kts | 42° |
| 2026-05-07 16:41 | 60.52781 | 24.46670 | 9610 ft | 322 kts | 59° |
| 2026-05-07 16:41 | 60.53876 | 24.50733 | 8165 ft | 334 kts | 61° |
| 2026-05-07 16:41 | 60.54847 | 24.55111 | 6617 ft | 344 kts | 64° |
| 2026-05-07 16:41 | 60.55892 | 24.59533 | 5007 ft | 350 kts | 62° |
| 2026-05-07 16:42 | 60.56977 | 24.63849 | 4380 ft | 330 kts | 61° |
| 2026-05-07 16:42 | 60.57972 | 24.67829 | 4171 ft | 300 kts | 64° |
| 2026-05-07 16:42 | 60.58517 | 24.71714 | 4035 ft | 275 kts | 83° |
| 2026-05-07 16:42 | 60.58441 | 24.75437 | 3734 ft | 258 kts | 102° |
| 2026-05-07 16:43 | 60.57817 | 24.78797 | 3184 ft | 253 kts | 121° |
| 2026-05-07 16:43 | 60.56731 | 24.81555 | 2600 ft | 248 kts | 140° |
| 2026-05-07 16:43 | 60.55316 | 24.83471 | 2090 ft | 242 kts | 158° |
| 2026-05-07 16:43 | 60.53738 | 24.84417 | 1971 ft | 240 kts | 174° |
| 2026-05-07 16:44 | 60.52055 | 24.84454 | 1982 ft | 240 kts | 186° |
| 2026-05-07 16:44 | 60.50392 | 24.84183 | 1978 ft | 240 kts | 186° |
| 2026-05-07 16:44 | 60.48746 | 24.83921 | 1977 ft | 234 kts | 186° |
| 2026-05-07 16:44 | 60.47127 | 24.83664 | 1979 ft | 235 kts | 186° |
| 2026-05-07 16:45 | 60.45492 | 24.83773 | 2004 ft | 239 kts | 167° |
| 2026-05-07 16:45 | 60.43966 | 24.85147 | 2007 ft | 240 kts | 155° |
| 2026-05-07 16:45 | 60.42523 | 24.86663 | 2003 ft | 226 kts | 156° |
| 2026-05-07 16:45 | 60.41165 | 24.88072 | 1949 ft | 214 kts | 155° |
| 2026-05-07 16:46 | 60.39845 | 24.89432 | 1735 ft | 212 kts | 155° |
| 2026-05-07 16:46 | 60.38532 | 24.90784 | 1452 ft | 213 kts | 156° |
| 2026-05-07 16:46 | 60.37231 | 24.92125 | 1149 ft | 209 kts | 156° |
| 2026-05-07 16:46 | 60.35947 | 24.93448 | 870 ft | 200 kts | 155° |
| 2026-05-07 16:47 | 60.34654 | 24.94757 | 1546 ft | 212 kts | 155° |
| 2026-05-07 16:47 | 60.33209 | 24.96137 | 1946 ft | 253 kts | 155° |
| 2026-05-07 16:47 | 60.31455 | 24.97759 | 2005 ft | 309 kts | 155° |
| 2026-05-07 16:47 | 60.29338 | 24.99698 | 2004 ft | 357 kts | 156° |
| 2026-05-07 16:48 | 60.27049 | 25.01783 | 3092 ft | 360 kts | 156° |
| 2026-05-07 16:48 | 60.24752 | 25.03936 | 3821 ft | 346 kts | 151° |
| 2026-05-07 16:48 | 60.23016 | 25.06703 | 4438 ft | 301 kts | 129° |
| 2026-05-07 16:48 | 60.22096 | 25.10375 | 3758 ft | 297 kts | 101° |
| 2026-05-07 16:49 | 60.22293 | 25.14507 | 2785 ft | 309 kts | 72° |
| 2026-05-07 16:49 | 60.23232 | 25.18452 | 1932 ft | 315 kts | 60° |
| 2026-05-07 16:49 | 60.24156 | 25.22282 | 1908 ft | 289 kts | 76° |
| 2026-05-07 16:49 | 60.24503 | 25.26055 | 1985 ft | 263 kts | 77° |
| 2026-05-07 16:50 | 60.25147 | 25.29338 | 2193 ft | 234 kts | 64° |
| 2026-05-07 16:50 | 60.26159 | 25.31600 | 2433 ft | 209 kts | 29° |
| 2026-05-07 16:50 | 60.27543 | 25.32176 | 2699 ft | 206 kts | 351° |
| 2026-05-07 16:50 | 60.28914 | 25.31362 | 2925 ft | 206 kts | 338° |
| 2026-05-07 16:51 | 60.30236 | 25.30278 | 3001 ft | 205 kts | 336° |
| 2026-05-07 16:51 | 60.31550 | 25.29168 | 3004 ft | 204 kts | 336° |
| 2026-05-07 16:51 | 60.32891 | 25.28018 | 3013 ft | 222 kts | 336° |
| 2026-05-07 16:51 | 60.34349 | 25.26751 | 3008 ft | 227 kts | 335° |
| 2026-05-07 16:52 | 60.35810 | 25.25481 | 3008 ft | 234 kts | 336° |
| 2026-05-07 16:52 | 60.37366 | 25.24113 | 3005 ft | 255 kts | 335° |
| 2026-05-07 16:52 | 60.39026 | 25.22652 | 3004 ft | 258 kts | 336° |
| 2026-05-07 16:52 | 60.40674 | 25.21198 | 3004 ft | 259 kts | 336° |
| 2026-05-07 16:53 | 60.42324 | 25.19741 | 3003 ft | 259 kts | 335° |
| 2026-05-07 16:53 | 60.43973 | 25.18289 | 3006 ft | 259 kts | 334° |
| 2026-05-07 16:53 | 60.45657 | 25.16910 | 3004 ft | 261 kts | 335° |
| 2026-05-07 16:53 | 60.47339 | 25.15551 | 2934 ft | 259 kts | 336° |
| 2026-05-07 16:54 | 60.48908 | 25.13868 | 2450 ft | 254 kts | 316° |
| 2026-05-07 16:54 | 60.49961 | 25.11044 | 2039 ft | 250 kts | 298° |
| 2026-05-07 16:54 | 60.50796 | 25.07932 | 1973 ft | 251 kts | 296° |
| 2026-05-07 16:54 | 60.51609 | 25.04798 | 1978 ft | 251 kts | 296° |
| 2026-05-07 16:55 | 60.52413 | 25.01658 | 1981 ft | 252 kts | 295° |
| 2026-05-07 16:55 | 60.52896 | 24.98288 | 1978 ft | 249 kts | 271° |
| 2026-05-07 16:55 | 60.52600 | 24.94947 | 1979 ft | 234 kts | 252° |
| 2026-05-07 16:55 | 60.52111 | 24.91842 | 1980 ft | 228 kts | 251° |
| 2026-05-07 16:56 | 60.51611 | 24.88798 | 1982 ft | 228 kts | 250° |
| 2026-05-07 16:56 | 60.51106 | 24.85745 | 1982 ft | 228 kts | 251° |
| 2026-05-07 16:56 | 60.49240 | 24.81108 | 1977 ft | 206 kts | 201° |
| 2026-05-07 16:57 | 60.47887 | 24.80574 | 1976 ft | 193 kts | 180° |
| 2026-05-07 16:57 | 60.46727 | 24.81677 | 2007 ft | 188 kts | 138° |
| 2026-05-07 16:57 | 60.45768 | 24.83426 | 2008 ft | 183 kts | 153° |
| 2026-05-07 16:57 | 60.44623 | 24.84509 | 2008 ft | 181 kts | 156° |
| 2026-05-07 16:58 | 60.43505 | 24.85653 | 2009 ft | 180 kts | 155° |
| 2026-05-07 16:58 | 60.42389 | 24.86805 | 2008 ft | 180 kts | 156° |
| 2026-05-07 16:58 | 60.41274 | 24.87957 | 1959 ft | 180 kts | 156° |
| 2026-05-07 16:58 | 60.40155 | 24.89112 | 1785 ft | 180 kts | 156° |
| 2026-05-07 16:59 | 60.39064 | 24.90239 | 1558 ft | 170 kts | 156° |
| 2026-05-07 16:59 | 60.38039 | 24.91296 | 1335 ft | 160 kts | 156° |
| 2026-05-07 16:59 | 60.37093 | 24.92271 | 1128 ft | 144 kts | 156° |
| 2026-05-07 16:59 | 60.36241 | 24.93148 | 929 ft | 132 kts | 155° |
| 2026-05-07 17:00 | 60.35714 | 24.93689 | 795 ft | 126 kts | 155° |
| 2026-05-07 17:00 | 60.34944 | 24.94479 | 632 ft | 122 kts | 155° |
| 2026-05-07 17:00 | 60.34193 | 24.95249 | 476 ft | 120 kts | 155° |
| 2026-05-07 17:00 | 60.33439 | 24.96022 | 314 ft | 119 kts | 155° |
| 2026-05-07 17:01 | 60.32715 | 24.96766 | 180 ft | 113 kts | 154° |
| 2026-05-07 17:01 | 60.32266 | 24.97235 | 158 ft | 44 kts | 152° |
| 2026-05-07 17:01 | 60.32025 | 24.97484 | 154 ft | 34 kts | 153° |
| 2026-05-07 17:01 | 60.31815 | 24.97696 | 152 ft | 23 kts | 154° |
| 2026-05-07 17:02 | 60.31695 | 24.97681 | 153 ft | 13 kts | 224° |
| 2026-05-07 17:02 | 60.31670 | 24.97531 | 158 ft | 9 kts | 289° |
| 2026-05-07 17:02 | 60.31690 | 24.97488 | 159 ft | 0 kts | 328° |
| 2026-05-07 17:02 | 60.31751 | 24.97424 | 160 ft | 16 kts | 333° |
| 2026-05-07 17:03 | 60.31869 | 24.97300 | 162 ft | 20 kts | 333° |
| 2026-05-07 17:03 | 60.31927 | 24.97237 | 163 ft | 4 kts | 324° |
| 2026-05-07 17:03 | 60.31906 | 24.97126 | 166 ft | 12 kts | 219° |
| 2026-05-07 17:03 | 60.31869 | 24.97018 | 167 ft | 2 kts | 243° |
| 2026-05-07 17:04 | 60.31864 | 24.96997 | 167 ft | 3 kts | 243° |
| 2026-05-07 17:04 | 60.31862 | 24.96991 | 167 ft | 0 kts | 243° |